Time,TemperatureF,DewpointF,PressureIn,WindDirection,WindDirectionDegrees,WindSpeedMPH,WindSpeedGustMPH,Humidity,HourlyPrecipIn,Conditions,Clouds,dailyrainin,SolarRadiationWatts/m^2,SoftwareType,DateUTC
2013-06-30 00:23:00,63.0,48.0,-100.00,North,5,6.0,12.0,59,0.00,,,0.00,1.000000,,2013-06-30 06:23:00,
2013-06-30 00:33:00,63.0,48.0,-100.00,North,5,6.0,12.0,59,0.00,,,0.00,1.000000,,2013-06-30 06:33:00,
2013-06-30 00:43:00,63.0,48.0,-100.00,North,5,6.0,12.0,59,0.00,,,0.00,1.000000,,2013-06-30 06:43:00,
2013-06-30 00:53:00,63.0,48.0,-100.00,North,5,6.0,12.0,59,0.00,,,0.00,1.000000,,2013-06-30 06:53:00,
2013-06-30 01:53:00,61.0,49.0,-100.00,NNW,346,5.0,11.0,64,0.00,,,0.00,1.000000,,2013-06-30 07:53:00,
2013-06-30 02:22:00,59.0,48.0,-100.00,SSE,152,3.0,6.0,68,0.00,,,0.00,1.000000,,2013-06-30 08:22:00,
2013-06-30 02:33:00,59.0,48.0,-100.00,SSE,152,3.0,6.0,68,0.00,,,0.00,1.000000,,2013-06-30 08:33:00,
2013-06-30 02:42:00,59.0,48.0,-100.00,SSE,152,3.0,6.0,68,0.00,,,0.00,1.000000,,2013-06-30 08:42:00,
2013-06-30 02:53:00,59.0,48.0,-100.00,SSE,152,3.0,6.0,68,0.00,,,0.00,1.000000,,2013-06-30 08:53:00,
2013-06-30 03:23:00,57.0,50.0,-100.00,WNW,301,1.0,4.0,76,0.00,,,0.00,1.000000,,2013-06-30 09:23:00,
2013-06-30 03:33:00,57.0,50.0,-100.00,WNW,301,1.0,4.0,76,0.00,,,0.00,1.000000,,2013-06-30 09:33:00,
2013-06-30 03:43:00,57.0,50.0,-100.00,WNW,301,1.0,4.0,76,0.00,,,0.00,1.000000,,2013-06-30 09:43:00,
2013-06-30 03:53:00,57.0,50.0,-100.00,WNW,301,1.0,4.0,76,0.00,,,0.00,1.000000,,2013-06-30 09:53:00,
2013-06-30 04:22:00,56.0,49.0,-100.00,NW,308,4.0,7.0,76,0.00,,,0.00,1.000000,,2013-06-30 10:22:00,
2013-06-30 04:33:00,56.0,49.0,-100.00,NW,308,4.0,7.0,76,0.00,,,0.00,1.000000,,2013-06-30 10:33:00,
2013-06-30 04:42:00,56.0,49.0,-100.00,NW,308,4.0,7.0,76,0.00,,,0.00,1.000000,,2013-06-30 10:42:00,
2013-06-30 04:53:00,56.0,49.0,-100.00,NW,308,4.0,7.0,76,0.00,,,0.00,1.000000,,2013-06-30 10:53:00,
2013-06-30 05:22:00,51.0,47.0,-100.00,North,2,4.0,7.0,87,0.00,,,0.00,1.000000,,2013-06-30 11:22:00,
2013-06-30 05:33:00,51.0,47.0,-100.00,North,2,4.0,7.0,87,0.00,,,0.00,1.000000,,2013-06-30 11:33:00,
2013-06-30 05:43:00,51.0,47.0,-100.00,North,2,4.0,7.0,87,0.00,,,0.00,1.000000,,2013-06-30 11:43:00,
2013-06-30 05:53:00,51.0,47.0,-100.00,North,2,4.0,7.0,87,0.00,,,0.00,1.000000,,2013-06-30 11:53:00,
2013-06-30 06:24:00,52.0,48.0,-100.00,North,351,6.0,9.0,87,0.00,,,0.00,2.000000,,2013-06-30 12:24:00,
2013-06-30 06:33:00,52.0,48.0,-100.00,North,351,6.0,9.0,87,0.00,,,0.00,2.000000,,2013-06-30 12:33:00,
2013-06-30 06:43:00,52.0,48.0,-100.00,North,351,6.0,9.0,87,0.00,,,0.00,2.000000,,2013-06-30 12:43:00,
2013-06-30 06:52:00,52.0,48.0,-100.00,North,351,6.0,9.0,87,0.00,,,0.00,2.000000,,2013-06-30 12:52:00,
2013-06-30 07:43:00,58.0,51.0,-100.00,NNE,13,5.0,6.0,77,0.00,,,0.00,75.000000,,2013-06-30 13:43:00,
2013-06-30 07:53:00,58.0,51.0,-100.00,NNE,13,5.0,6.0,77,0.00,,,0.00,75.000000,,2013-06-30 13:53:00,
2013-06-30 08:33:00,63.0,50.0,-100.00,NNE,23,4.0,8.0,63,0.00,,,0.00,247.000000,,2013-06-30 14:33:00,
2013-06-30 08:44:00,63.0,50.0,-100.00,NNE,23,4.0,8.0,63,0.00,,,0.00,247.000000,,2013-06-30 14:44:00,
2013-06-30 08:52:00,63.0,50.0,-100.00,NNE,23,4.0,8.0,63,0.00,,,0.00,247.000000,,2013-06-30 14:52:00,
2013-06-30 09:34:00,68.0,50.0,-100.00,NE,51,3.0,7.0,53,0.00,,,0.00,428.000000,,2013-06-30 15:34:00,
2013-06-30 09:44:00,68.0,50.0,-100.00,NE,51,3.0,7.0,53,0.00,,,0.00,428.000000,,2013-06-30 15:44:00,
2013-06-30 09:53:00,68.0,50.0,-100.00,NE,51,3.0,7.0,53,0.00,,,0.00,428.000000,,2013-06-30 15:53:00,
2013-06-30 10:21:00,72.0,51.0,-100.00,South,169,4.0,7.0,47,0.00,,,0.00,605.000000,,2013-06-30 16:21:00,
2013-06-30 10:34:00,72.0,51.0,-100.00,South,169,4.0,7.0,47,0.00,,,0.00,605.000000,,2013-06-30 16:34:00,
2013-06-30 10:44:00,72.0,51.0,-100.00,South,169,4.0,7.0,47,0.00,,,0.00,605.000000,,2013-06-30 16:44:00,
2013-06-30 10:53:00,72.0,51.0,-100.00,South,169,4.0,7.0,47,0.00,,,0.00,605.000000,,2013-06-30 16:53:00,
2013-06-30 11:23:00,74.0,51.0,-100.00,SSW,192,6.0,10.0,44,0.00,,,0.00,758.000000,,2013-06-30 17:23:00,
2013-06-30 11:33:00,74.0,51.0,-100.00,SSW,192,6.0,10.0,44,0.00,,,0.00,758.000000,,2013-06-30 17:33:00,
2013-06-30 11:43:00,74.0,51.0,-100.00,SSW,192,6.0,10.0,44,0.00,,,0.00,758.000000,,2013-06-30 17:43:00,
2013-06-30 11:52:00,74.0,51.0,-100.00,SSW,192,6.0,10.0,44,0.00,,,0.00,758.000000,,2013-06-30 17:52:00,
2013-06-30 12:22:00,79.0,49.0,-100.00,WSW,240,4.0,12.0,35,0.00,,,0.00,878.000000,,2013-06-30 18:22:00,
2013-06-30 12:33:00,79.0,49.0,-100.00,WSW,240,4.0,12.0,35,0.00,,,0.00,878.000000,,2013-06-30 18:33:00,
2013-06-30 12:43:00,79.0,49.0,-100.00,WSW,240,4.0,12.0,35,0.00,,,0.00,878.000000,,2013-06-30 18:43:00,
2013-06-30 12:53:00,79.0,49.0,-100.00,WSW,240,4.0,12.0,35,0.00,,,0.00,878.000000,,2013-06-30 18:53:00,
2013-06-30 13:33:00,82.0,46.0,-100.00,ESE,112,5.0,13.0,28,0.00,,,0.00,950.000000,,2013-06-30 19:33:00,
2013-06-30 13:43:00,82.0,46.0,-100.00,ESE,112,5.0,13.0,28,0.00,,,0.00,950.000000,,2013-06-30 19:43:00,
2013-06-30 13:53:00,82.0,46.0,-100.00,ESE,112,5.0,13.0,28,0.00,,,0.00,950.000000,,2013-06-30 19:53:00,
2013-06-30 14:22:00,84.0,45.0,-100.00,South,174,7.0,14.0,26,0.00,,,0.00,977.000000,,2013-06-30 20:22:00,
2013-06-30 14:34:00,84.0,45.0,-100.00,South,174,7.0,14.0,26,0.00,,,0.00,977.000000,,2013-06-30 20:34:00,
2013-06-30 14:42:00,84.0,45.0,-100.00,South,174,7.0,14.0,26,0.00,,,0.00,977.000000,,2013-06-30 20:42:00,
2013-06-30 14:52:00,84.0,45.0,-100.00,South,174,7.0,14.0,26,0.00,,,0.00,977.000000,,2013-06-30 20:52:00,
2013-06-30 15:33:00,82.0,43.0,-100.00,SE,130,3.0,13.0,25,0.00,,,0.00,727.000000,,2013-06-30 21:33:00,
2013-06-30 15:42:00,82.0,43.0,-100.00,SE,130,3.0,13.0,25,0.00,,,0.00,727.000000,,2013-06-30 21:42:00,
2013-06-30 15:53:00,82.0,43.0,-100.00,SE,130,3.0,13.0,25,0.00,,,0.00,727.000000,,2013-06-30 21:53:00,
2013-06-30 16:22:00,88.0,36.0,-100.00,NNW,345,7.0,15.0,16,0.00,,,-99.99,740.000000,,2013-06-30 22:22:00,
2013-06-30 16:34:00,88.0,36.0,-100.00,NNW,345,7.0,15.0,16,0.00,,,-99.99,740.000000,,2013-06-30 22:34:00,
2013-06-30 16:43:00,88.0,36.0,-100.00,NNW,345,7.0,15.0,16,0.00,,,-99.99,740.000000,,2013-06-30 22:43:00,
2013-06-30 16:52:00,88.0,36.0,-100.00,NNW,345,7.0,15.0,16,0.00,,,-99.99,740.000000,,2013-06-30 22:52:00,
2013-06-30 17:22:00,82.0,36.0,-100.00,NNW,327,5.0,15.0,19,0.00,,,0.00,465.000000,,2013-06-30 23:22:00,
2013-06-30 17:33:00,82.0,36.0,-100.00,NNW,327,5.0,15.0,19,0.00,,,0.00,465.000000,,2013-06-30 23:33:00,
2013-06-30 17:43:00,82.0,36.0,-100.00,NNW,327,5.0,15.0,19,0.00,,,0.00,465.000000,,2013-06-30 23:43:00,
2013-06-30 17:53:00,82.0,36.0,-100.00,NNW,327,5.0,15.0,19,0.00,,,0.00,465.000000,,2013-06-30 23:53:00,
2013-06-30 18:22:00,83.0,36.0,-100.00,NW,313,5.0,11.0,19,0.00,,,0.00,339.000000,,2013-07-01 00:22:00,
2013-06-30 18:33:00,83.0,36.0,-100.00,NW,313,5.0,11.0,19,0.00,,,0.00,339.000000,,2013-07-01 00:33:00,
2013-06-30 18:42:00,83.0,36.0,-100.00,NW,313,5.0,11.0,19,0.00,,,0.00,339.000000,,2013-07-01 00:42:00,
2013-06-30 18:52:00,83.0,36.0,-100.00,NW,313,5.0,11.0,19,0.00,,,0.00,339.000000,,2013-07-01 00:52:00,
2013-06-30 19:22:00,85.0,37.0,-100.00,NNW,348,6.0,12.0,18,0.00,,,0.00,369.000000,,2013-07-01 01:22:00,
2013-06-30 19:33:00,85.0,37.0,-100.00,NNW,348,6.0,12.0,18,0.00,,,0.00,369.000000,,2013-07-01 01:33:00,
2013-06-30 19:42:00,85.0,37.0,-100.00,NNW,348,6.0,12.0,18,0.00,,,0.00,369.000000,,2013-07-01 01:42:00,
2013-06-30 19:52:00,85.0,37.0,-100.00,NNW,348,6.0,12.0,18,0.00,,,0.00,369.000000,,2013-07-01 01:52:00,
2013-06-30 20:22:00,76.0,41.0,-100.00,NNW,329,3.0,9.0,29,0.00,,,0.00,192.000000,,2013-07-01 02:22:00,
2013-06-30 20:33:00,76.0,41.0,-100.00,NNW,329,3.0,9.0,29,0.00,,,0.00,192.000000,,2013-07-01 02:33:00,
2013-06-30 20:43:00,76.0,41.0,-100.00,NNW,329,3.0,9.0,29,0.00,,,0.00,192.000000,,2013-07-01 02:43:00,
2013-06-30 20:53:00,76.0,41.0,-100.00,NNW,329,3.0,9.0,29,0.00,,,0.00,192.000000,,2013-07-01 02:53:00,
2013-06-30 21:23:00,70.0,45.0,-100.00,NW,310,5.0,8.0,40,0.00,,,0.00,20.000000,,2013-07-01 03:23:00,
2013-06-30 21:33:00,70.0,45.0,-100.00,NW,310,5.0,8.0,40,0.00,,,0.00,20.000000,,2013-07-01 03:33:00,
2013-06-30 21:43:00,70.0,45.0,-100.00,NW,310,5.0,8.0,40,0.00,,,0.00,20.000000,,2013-07-01 03:43:00,
2013-06-30 21:52:00,70.0,45.0,-100.00,NW,310,5.0,8.0,40,0.00,,,0.00,20.000000,,2013-07-01 03:52:00,
2013-06-30 22:22:00,67.0,46.0,-100.00,NW,319,6.0,9.0,47,0.00,,,0.00,4.000000,,2013-07-01 04:22:00,
2013-06-30 22:32:00,67.0,46.0,-100.00,NW,319,6.0,9.0,47,0.00,,,0.00,4.000000,,2013-07-01 04:32:00,
2013-06-30 22:42:00,67.0,46.0,-100.00,NW,319,6.0,9.0,47,0.00,,,0.00,4.000000,,2013-07-01 04:42:00,
2013-06-30 22:52:00,67.0,46.0,-100.00,NW,319,6.0,9.0,47,0.00,,,0.00,4.000000,,2013-07-01 04:52:00,
2013-06-30 23:22:00,65.0,45.0,-100.00,WNW,296,4.0,10.0,49,0.00,,,0.00,1.000000,,2013-07-01 05:22:00,
2013-06-30 23:33:00,65.0,45.0,-100.00,WNW,296,4.0,10.0,49,0.00,,,0.00,1.000000,,2013-07-01 05:33:00,
2013-06-30 23:42:00,65.0,45.0,-100.00,WNW,296,4.0,10.0,49,0.00,,,0.00,1.000000,,2013-07-01 05:42:00,
2013-06-30 23:52:00,65.0,45.0,-100.00,WNW,296,4.0,10.0,49,0.00,,,0.00,1.000000,,2013-07-01 05:52:00,